createdAt,value
2022-09-26T00:01:04.461Z,100276.22
2022-09-26T00:03:06.077Z,100264.56
2022-09-26T00:05:08.711Z,100267.44
2022-09-26T00:07:10.286Z,100262.41
2022-09-26T00:09:13.245Z,100263.38
2022-09-26T00:11:18.066Z,100266.78
2022-09-26T00:13:19.570Z,100260.19
2022-09-26T00:15:21.201Z,100256.72
2022-09-26T00:17:22.636Z,100251.59
2022-09-26T00:19:23.957Z,100257.59
2022-09-26T00:21:26.901Z,100256.09
2022-09-26T00:23:28.387Z,100256.53
2022-09-26T00:25:29.863Z,100252.25
2022-09-26T00:27:32.742Z,100250.97
2022-09-26T00:29:34.239Z,100254.59
2022-09-26T00:31:40.078Z,100262.19
2022-09-26T00:33:42.257Z,100250.75
2022-09-26T00:35:49.533Z,100251.41
2022-09-26T00:37:51.017Z,100255.88
2022-09-26T00:39:52.323Z,100257.28
2022-09-26T00:41:53.891Z,100252.03
2022-09-26T00:43:57.229Z,100257.38
2022-09-26T00:46:02.456Z,100257.47
2022-09-26T00:48:06.127Z,100258.00
2022-09-26T00:50:12.695Z,100251.41
2022-09-26T00:52:18.279Z,100250.84
2022-09-26T00:54:20.246Z,100253.31
2022-09-26T00:56:26.485Z,100251.19
2022-09-26T00:58:32.357Z,100251.81
2022-09-26T01:00:35.496Z,100244.56
2022-09-26T01:02:37.508Z,100243.06
2022-09-26T01:04:40.675Z,100240.72
2022-09-26T01:06:42.957Z,100240.72
2022-09-26T01:08:50.608Z,100231.19
2022-09-26T01:10:52.321Z,100226.41
2022-09-26T01:12:54.068Z,100230.34
2022-09-26T01:14:56.979Z,100216.56
2022-09-26T01:16:59.989Z,100214.66
2022-09-26T01:19:04.122Z,100213.47
2022-09-26T01:21:20.829Z,100218.81
2022-09-26T01:23:46.934Z,100215.19
2022-09-26T01:26:26.336Z,100205.78
2022-09-26T01:28:46.600Z,100193.91
2022-09-26T01:30:58.878Z,100208.97
2022-09-26T01:33:36.294Z,100211.44
2022-09-26T01:35:51.607Z,100193.47
2022-09-26T01:38:04.848Z,100196.06
2022-09-26T01:40:14.915Z,100195.53
2022-09-26T01:42:26.066Z,100196.28
2022-09-26T01:44:32.830Z,100199.47
2022-09-26T01:46:40.752Z,100197.56
2022-09-26T01:48:45.804Z,100197.13
2022-09-26T01:50:52.166Z,100199.16
2022-09-26T01:52:59.641Z,100197.03
2022-09-26T01:55:07.738Z,100190.72
2022-09-26T01:57:14.159Z,100196.19
2022-09-26T01:59:20.407Z,100194.56
2022-09-26T02:01:25.466Z,100197.56
2022-09-26T02:03:31.736Z,100191.78
2022-09-26T02:05:39.711Z,100190.31
2022-09-26T02:07:45.095Z,100186.25
2022-09-26T02:09:50.975Z,100183.66
2022-09-26T02:11:56.183Z,100182.59
2022-09-26T02:14:03.578Z,100173.00
2022-09-26T02:16:10.397Z,100178.97
2022-09-26T02:18:15.394Z,100177.69
2022-09-26T02:20:22.646Z,100174.28
2022-09-26T02:22:26.674Z,100167.44
2022-09-26T02:24:28.833Z,100163.16
2022-09-26T02:26:30.305Z,100150.78
2022-09-26T02:28:31.806Z,100149.91
2022-09-26T02:30:33.564Z,100142.88
2022-09-26T02:32:35.095Z,100162.31
2022-09-26T02:34:36.665Z,100142.00
2022-09-26T02:36:39.523Z,100150.75
2022-09-26T02:38:40.999Z,100146.16
2022-09-26T02:40:49.821Z,100151.28
2022-09-26T02:42:58.951Z,100151.19
2022-09-26T02:45:20.358Z,100147.03
2022-09-26T02:47:45.322Z,100149.38
2022-09-26T02:50:21.973Z,100152.06
2022-09-26T02:52:37.639Z,100135.59
2022-09-26T02:54:44.980Z,100141.59
2022-09-26T02:57:00.941Z,100142.56
2022-09-26T02:59:08.277Z,100137.66
2022-09-26T03:01:17.151Z,100127.59
2022-09-26T03:03:23.411Z,100124.09
2022-09-26T03:05:28.599Z,100127.50
2022-09-26T03:07:37.188Z,100127.69
2022-09-26T03:09:40.285Z,100125.34
2022-09-26T03:11:43.160Z,100115.41
2022-09-26T03:13:46.115Z,100129.44
2022-09-26T03:15:53.190Z,100129.84
2022-09-26T03:17:56.614Z,100116.19
2022-09-26T03:20:04.440Z,100121.75
2022-09-26T03:22:06.013Z,100118.22
2022-09-26T03:24:09.739Z,100129.75
2022-09-26T03:26:14.140Z,100121.09
2022-09-26T03:28:16.204Z,100116.06
2022-09-26T03:30:18.998Z,100124.91
2022-09-26T03:32:20.457Z,100123.66
2022-09-26T03:34:21.773Z,100127.63
2022-09-26T03:36:23.623Z,100126.66
2022-09-26T03:38:25.054Z,100120.69
2022-09-26T03:40:27.834Z,100124.53
2022-09-26T03:42:29.406Z,100118.34
2022-09-26T03:44:30.882Z,100121.56
2022-09-26T03:46:35.064Z,100112.78
2022-09-26T03:48:40.474Z,100105.31
2022-09-26T03:50:41.893Z,100104.06
2022-09-26T03:52:43.354Z,100108.44
2022-09-26T03:54:44.955Z,100092.28
2022-09-26T03:56:47.777Z,100098.06
2022-09-26T03:58:49.257Z,100102.56
2022-09-26T04:00:50.802Z,100106.16
2022-09-26T04:02:52.299Z,100094.84
2022-09-26T04:04:53.619Z,100107.44
2022-09-26T04:06:55.067Z,100092.78
2022-09-26T04:08:56.412Z,100097.16
2022-09-26T04:11:02.497Z,100100.50
2022-09-26T04:13:05.362Z,100096.13
2022-09-26T04:15:08.155Z,100081.34
2022-09-26T04:17:09.670Z,100085.44
2022-09-26T04:19:11.221Z,100085.66
2022-09-26T04:21:13.447Z,100091.88
2022-09-26T04:23:15.133Z,100084.41
2022-09-26T04:25:16.629Z,100077.38
2022-09-26T04:27:18.120Z,100076.81
2022-09-26T04:29:21.060Z,100076.66
2022-09-26T04:31:23.122Z,100069.41
2022-09-26T04:33:24.663Z,100082.63
2022-09-26T04:35:25.995Z,100083.47
2022-09-26T04:37:27.474Z,100093.81
2022-09-26T04:39:28.750Z,100091.34
2022-09-26T04:41:31.012Z,100085.06
2022-09-26T04:43:32.751Z,100080.91
2022-09-26T04:45:35.870Z,100082.09
2022-09-26T04:47:37.626Z,100082.00
2022-09-26T04:49:39.135Z,100084.56
2022-09-26T04:51:40.421Z,100076.88
2022-09-26T04:53:42.696Z,100069.44
2022-09-26T04:55:44.414Z,100074.78
2022-09-26T04:57:48.470Z,100065.47
2022-09-26T04:59:50.043Z,100070.47
2022-09-26T05:01:52.896Z,100072.06
2022-09-26T05:03:54.431Z,100073.84
2022-09-26T05:05:56.384Z,100070.09
2022-09-26T05:07:57.832Z,100071.47
2022-09-26T05:09:59.145Z,100072.34
2022-09-26T05:12:00.802Z,100068.38
2022-09-26T05:14:02.363Z,100064.75
2022-09-26T05:16:04.068Z,100053.63
2022-09-26T05:18:08.289Z,100063.91
2022-09-26T05:20:10.076Z,100056.81
2022-09-26T05:22:11.555Z,100067.25
2022-09-26T05:24:13.333Z,100062.06
2022-09-26T05:26:20.003Z,100066.91
2022-09-26T05:28:21.651Z,100060.47
2022-09-26T05:30:23.150Z,100058.34
2022-09-26T05:32:24.599Z,100069.44
2022-09-26T05:34:27.261Z,100059.16
2022-09-26T05:36:28.725Z,100065.13
2022-09-26T05:38:30.053Z,100066.53
2022-09-26T05:40:31.859Z,100064.47
2022-09-26T05:42:33.569Z,100070.13
2022-09-26T05:44:35.010Z,100068.94
2022-09-26T05:46:36.320Z,100073.66
2022-09-26T05:48:39.212Z,100060.09
2022-09-26T05:50:43.730Z,100061.06
2022-09-26T05:52:45.304Z,100065.75
2022-09-26T05:54:46.619Z,100060.00
2022-09-26T05:56:48.062Z,100061.28
2022-09-26T05:58:51.939Z,100060.66
2022-09-26T06:00:53.458Z,100063.44
2022-09-26T06:02:55.741Z,100058.31
2022-09-26T06:04:57.219Z,100058.78
2022-09-26T06:06:59.889Z,100054.81
2022-09-26T06:09:01.367Z,100050.25
2022-09-26T06:11:03.353Z,100053.00
2022-09-26T06:13:05.817Z,100051.09
2022-09-26T06:15:08.289Z,100050.88
2022-09-26T06:17:09.736Z,100048.50
2022-09-26T06:19:11.162Z,100053.41
2022-09-26T06:21:14.965Z,100050.22
2022-09-26T06:23:17.778Z,100050.22
2022-09-26T06:25:19.276Z,100048.88
2022-09-26T06:27:20.852Z,100047.41
2022-09-26T06:29:22.306Z,100035.38
2022-09-26T06:31:23.749Z,100040.31
2022-09-26T06:33:27.736Z,100039.84
2022-09-26T06:35:32.603Z,100038.56
2022-09-26T06:37:34.192Z,100037.06
2022-09-26T06:39:37.034Z,100039.91
2022-09-26T06:41:38.513Z,100035.06
2022-09-26T06:43:39.824Z,100031.19
2022-09-26T06:45:41.300Z,100036.31
2022-09-26T06:47:42.758Z,100029.03
2022-09-26T06:49:44.101Z,100024.34
2022-09-26T06:51:46.455Z,100020.59
2022-09-26T06:53:48.036Z,100017.38
2022-09-26T06:55:50.896Z,100019.19
2022-09-26T06:57:52.336Z,100019.81
2022-09-26T06:59:53.635Z,100017.69
2022-09-26T07:01:55.203Z,100014.91
2022-09-26T07:03:56.765Z,100019.78
2022-09-26T07:05:58.516Z,100012.00
2022-09-26T07:08:00.183Z,100015.19
2022-09-26T07:10:01.641Z,100009.94
2022-09-26T07:12:15.126Z,100016.41
2022-09-26T07:14:17.269Z,100004.97
2022-09-26T07:16:18.916Z,100008.13
2022-09-26T07:18:20.384Z,100008.16
2022-09-26T07:20:21.705Z,100009.72
2022-09-26T07:22:23.194Z,100001.81
2022-09-26T07:24:24.668Z,100001.81
2022-09-26T07:26:26.203Z,100012.78
2022-09-26T07:28:29.006Z,100008.28
2022-09-26T07:30:30.460Z,100006.19
2022-09-26T07:32:32.366Z,100003.78
2022-09-26T07:34:33.890Z,100007.66
2022-09-26T07:36:35.341Z,99999.13
2022-09-26T07:38:36.899Z,99997.69
2022-09-26T07:40:38.417Z,99988.41
2022-09-26T07:42:39.929Z,99992.19
2022-09-26T07:47:04.529Z,99997.81
2022-09-26T07:49:06.007Z,99991.69
2022-09-26T07:51:09.399Z,100001.59
2022-09-26T07:53:11.256Z,99982.75
2022-09-26T07:55:14.720Z,99980.97
2022-09-26T07:57:16.236Z,99993.53
2022-09-26T07:59:17.703Z,99998.97
2022-09-26T08:01:20.833Z,99993.16
2022-09-26T08:03:22.566Z,99993.94
2022-09-26T08:05:24.127Z,99992.34
2022-09-26T08:07:25.764Z,99995.09
2022-09-26T08:09:27.250Z,99998.13
2022-09-26T08:11:29.100Z,99985.09
2022-09-26T08:13:32.522Z,99985.72
2022-09-26T08:15:34.013Z,99993.78
2022-09-26T08:17:36.808Z,99990.53
2022-09-26T08:19:38.314Z,99988.50
2022-09-26T08:21:39.808Z,99999.47
2022-09-26T08:23:41.627Z,99987.84
2022-09-26T08:25:44.038Z,99986.59
2022-09-26T08:27:45.691Z,99994.00
2022-09-26T08:29:47.527Z,99986.13
2022-09-26T08:31:49.193Z,99981.16
2022-09-26T08:33:52.086Z,99986.03
2022-09-26T08:35:53.546Z,99986.81
2022-09-26T08:37:55.003Z,99978.03
2022-09-26T08:39:56.638Z,99974.84
2022-09-26T08:42:20.243Z,99970.59
2022-09-26T08:44:38.032Z,99981.25
2022-09-26T08:46:48.786Z,99986.34
2022-09-26T08:49:05.611Z,99966.47
2022-09-26T08:51:17.919Z,99964.66
2022-09-26T08:53:24.752Z,99973.75
2022-09-26T08:55:30.619Z,99970.41
2022-09-26T08:57:40.093Z,99959.31
2022-09-26T08:59:43.604Z,99951.94
2022-09-26T09:01:47.406Z,99960.22
2022-09-26T09:03:53.296Z,99964.56
2022-09-26T09:06:01.227Z,99956.38
2022-09-26T09:08:04.123Z,99963.06
2022-09-26T09:10:10.773Z,99954.63
2022-09-26T09:12:24.258Z,99952.72
2022-09-26T09:14:42.638Z,99951.34
2022-09-26T09:16:56.125Z,99932.97
2022-09-26T09:19:09.191Z,99938.44
2022-09-26T09:21:21.682Z,99932.00
2022-09-26T09:23:34.515Z,99940.50
2022-09-26T09:25:45.945Z,99933.16
2022-09-26T09:28:08.010Z,99928.34
2022-09-26T09:30:18.382Z,99930.59
2022-09-26T09:32:25.911Z,99925.50
2022-09-26T09:34:31.220Z,99929.03
2022-09-26T09:36:40.512Z,99926.78
2022-09-26T09:38:45.551Z,99923.47
2022-09-26T09:40:57.164Z,99926.31
2022-09-26T09:43:03.948Z,99923.53
2022-09-26T09:45:11.305Z,99907.69
2022-09-26T09:47:14.969Z,99907.84
2022-09-26T09:49:20.232Z,99914.50
2022-09-26T09:51:39.821Z,99909.44
2022-09-26T09:53:54.681Z,99901.59
2022-09-26T09:56:07.120Z,99897.47
2022-09-26T09:58:42.032Z,99896.16
2022-09-26T10:00:51.389Z,99892.00
2022-09-26T10:02:57.931Z,99895.16
2022-09-26T10:05:07.452Z,99896.00
2022-09-26T10:07:10.459Z,99883.59
2022-09-26T10:09:35.766Z,99884.75
2022-09-26T10:11:42.484Z,99884.34
2022-09-26T10:13:45.315Z,99883.50
2022-09-26T10:15:54.736Z,99883.16
2022-09-26T10:18:22.854Z,99884.81
2022-09-26T10:20:35.266Z,99878.72
2022-09-26T10:22:43.721Z,99867.47
2022-09-26T10:24:47.662Z,99861.16
2022-09-26T10:26:49.598Z,99868.09
2022-09-26T10:28:53.954Z,99857.63
2022-09-26T10:31:02.815Z,99861.63
2022-09-26T10:33:04.387Z,99850.69
2022-09-26T10:35:19.775Z,99857.53
2022-09-26T10:37:23.974Z,99854.53
2022-09-26T10:39:30.118Z,99824.75
2022-09-26T10:41:39.480Z,99854.28
2022-09-26T10:43:52.837Z,99849.41
2022-09-26T10:46:02.203Z,99841.53
2022-09-26T10:48:05.124Z,99835.31
2022-09-26T10:50:10.181Z,99841.97
2022-09-26T10:52:19.502Z,99839.31
2022-09-26T10:54:23.457Z,99837.84
2022-09-26T10:56:30.726Z,99840.16
2022-09-26T10:58:40.233Z,99839.13
2022-09-26T11:00:43.592Z,99836.16
2022-09-26T11:02:46.909Z,99834.84
2022-09-26T11:04:53.930Z,99834.84
2022-09-26T11:06:55.834Z,99827.13
2022-09-26T11:09:00.749Z,99819.81
2022-09-26T11:11:04.649Z,99826.34
2022-09-26T11:13:17.125Z,99826.13
2022-09-26T11:15:18.781Z,99814.44
2022-09-26T11:17:20.300Z,99818.50
2022-09-26T11:19:32.968Z,99821.97
2022-09-26T11:21:39.680Z,99816.59
2022-09-26T11:23:46.422Z,99814.00
2022-09-26T11:28:19.117Z,99809.69
2022-09-26T11:35:02.851Z,99809.38
2022-09-26T11:39:49.309Z,99804.84
2022-09-26T11:42:05.157Z,99807.03
2022-09-26T11:44:35.571Z,99799.75
2022-09-26T11:46:47.267Z,99804.19
2022-09-26T11:48:58.701Z,99801.59
2022-09-26T11:51:07.584Z,99799.59
2022-09-26T11:53:34.091Z,99794.28
2022-09-26T11:55:58.651Z,99791.75
2022-09-26T11:58:08.264Z,99795.38
2022-09-26T12:00:15.034Z,99791.25
2022-09-26T12:02:31.847Z,99778.13
2022-09-26T12:04:54.667Z,99768.66
2022-09-26T12:07:02.980Z,99774.19
2022-09-26T12:09:16.901Z,99768.16
2022-09-26T12:11:28.332Z,99760.34
2022-09-26T12:13:40.322Z,99744.50
2022-09-26T12:15:53.609Z,99746.38
2022-09-26T12:18:09.659Z,99750.97
2022-09-26T12:20:20.525Z,99741.16
2022-09-26T12:22:30.994Z,99743.38
2022-09-26T12:24:39.396Z,99732.81
2022-09-26T12:26:52.299Z,99732.41
2022-09-26T12:29:09.573Z,99735.75
2022-09-26T12:31:20.901Z,99742.16
2022-09-26T12:33:54.009Z,99734.13
2022-09-26T12:36:02.640Z,99736.56
2022-09-26T12:38:24.041Z,99718.13
2022-09-26T12:40:35.139Z,99728.03
2022-09-26T12:42:53.555Z,99720.38
2022-09-26T12:45:13.828Z,99718.38
2022-09-26T12:47:30.736Z,99717.06
2022-09-26T12:49:53.480Z,99713.34
2022-09-26T12:52:01.983Z,99707.22
2022-09-26T12:54:40.819Z,99706.13
2022-09-26T12:56:48.131Z,99694.69
2022-09-26T12:59:05.701Z,99700.59
2022-09-26T13:01:20.265Z,99698.91
2022-09-26T13:03:55.365Z,99699.06
2022-09-26T13:06:26.514Z,99702.28
2022-09-26T13:08:36.196Z,99700.59
2022-09-26T13:10:44.420Z,99702.22
2022-09-26T13:13:10.666Z,99692.13
2022-09-26T13:15:24.361Z,99694.72
2022-09-26T13:17:31.277Z,99700.16
2022-09-26T13:19:38.401Z,99677.63
2022-09-26T13:21:43.807Z,99698.59
2022-09-26T13:23:51.970Z,99689.00
2022-09-26T13:25:58.034Z,99684.75
2022-09-26T13:28:02.848Z,99678.84
2022-09-26T13:30:07.150Z,99688.50
2022-09-26T13:32:18.053Z,99683.72
2022-09-26T13:34:24.824Z,99690.78
2022-09-26T13:36:29.012Z,99680.22
2022-09-26T13:38:45.854Z,99680.16
2022-09-26T13:40:55.674Z,99678.47
2022-09-26T13:43:09.606Z,99680.09
2022-09-26T13:45:18.878Z,99676.69
2022-09-26T13:47:32.403Z,99669.59
2022-09-26T13:49:47.981Z,99660.63
2022-09-26T13:52:01.168Z,99663.91
2022-09-26T13:54:15.786Z,99656.09
2022-09-26T13:56:45.925Z,99650.47
2022-09-26T13:58:59.540Z,99647.63
2022-09-26T14:01:24.107Z,99637.63
2022-09-26T14:03:42.712Z,99641.34
2022-09-26T14:05:47.070Z,99640.78
2022-09-26T14:07:52.543Z,99644.47
2022-09-26T14:09:57.030Z,99634.34
2022-09-26T14:12:20.118Z,99627.41
2022-09-26T14:14:25.263Z,99628.19
2022-09-26T14:16:35.421Z,99612.19
2022-09-26T14:18:56.760Z,99620.56
2022-09-26T14:21:16.900Z,99618.50
2022-09-26T14:26:04.246Z,99605.13
2022-09-26T14:28:10.207Z,99614.72
2022-09-26T14:30:27.434Z,99612.41
2022-09-26T14:32:37.030Z,99609.25
2022-09-26T14:34:42.215Z,99606.03
2022-09-26T14:36:45.365Z,99602.06
2022-09-26T14:38:48.315Z,99592.53
2022-09-26T14:40:55.681Z,99602.81
2022-09-26T14:43:05.517Z,99593.22
2022-09-26T14:45:18.990Z,99597.19
2022-09-26T14:47:20.909Z,99582.81
2022-09-26T14:49:26.477Z,99595.72
2022-09-26T14:51:30.903Z,99584.81
2022-09-26T14:53:38.865Z,99593.47
2022-09-26T14:55:54.489Z,99595.06
2022-09-26T14:58:29.253Z,99590.97
2022-09-26T15:00:36.801Z,99582.09
2022-09-26T15:02:40.046Z,99591.38
2022-09-26T15:04:42.740Z,99583.75
2022-09-26T15:06:47.662Z,99578.81
2022-09-26T15:08:49.995Z,99578.50
2022-09-26T15:10:53.627Z,99580.09
2022-09-26T15:13:04.147Z,99571.28
2022-09-26T15:15:17.786Z,99570.75
2022-09-26T15:17:25.727Z,99560.81
2022-09-26T15:19:31.313Z,99569.31
2022-09-26T15:21:37.569Z,99569.88
2022-09-26T15:23:49.683Z,99573.44
2022-09-26T15:25:51.553Z,99563.69
2022-09-26T15:27:55.112Z,99565.69
2022-09-26T15:30:03.858Z,99566.28
2022-09-26T15:32:13.577Z,99564.88
2022-09-26T15:34:17.639Z,99568.81
2022-09-26T15:36:20.358Z,99559.19
2022-09-26T15:38:23.758Z,99570.25
2022-09-26T15:40:27.060Z,99553.72
2022-09-26T15:42:30.274Z,99550.44
2022-09-26T15:44:33.206Z,99562.34
2022-09-26T15:46:34.855Z,99550.75
2022-09-26T15:48:42.873Z,99551.53
2022-09-26T15:50:47.755Z,99548.47
2022-09-26T15:52:52.944Z,99539.41
2022-09-26T15:54:54.673Z,99539.75
2022-09-26T15:56:59.953Z,99544.28
2022-09-26T15:59:07.800Z,99534.28
2022-09-26T16:01:14.010Z,99541.22
2022-09-26T16:03:36.166Z,99545.09
2022-09-26T16:05:39.149Z,99530.56
2022-09-26T16:07:45.692Z,99537.66
2022-09-26T16:09:49.857Z,99538.66
2022-09-26T16:11:54.445Z,99535.84
2022-09-26T16:13:56.628Z,99529.19
2022-09-26T16:16:01.406Z,99529.75
2022-09-26T16:18:02.987Z,99526.50
2022-09-26T16:20:23.800Z,99527.50
2022-09-26T16:22:48.572Z,99522.44
2022-09-26T16:24:50.632Z,99530.91
2022-09-26T16:26:52.326Z,99528.34
2022-09-26T16:28:53.989Z,99529.50
2022-09-26T16:31:16.392Z,99525.81
2022-09-26T16:33:28.720Z,99522.44
2022-09-26T16:35:31.838Z,99517.91
2022-09-26T16:37:55.112Z,99524.63
2022-09-26T16:39:58.299Z,99524.91
2022-09-26T16:42:03.199Z,99520.66
2022-09-26T16:44:20.156Z,99516.16
2022-09-26T16:46:28.593Z,99511.91
2022-09-26T16:48:38.714Z,99511.59
2022-09-26T16:50:40.254Z,99510.19
2022-09-26T16:52:42.032Z,99509.56
2022-09-26T16:54:43.544Z,99504.75
2022-09-26T16:56:48.331Z,99513.34
2022-09-26T16:58:52.341Z,99505.28
2022-09-26T17:00:53.870Z,99507.75
2022-09-26T17:02:55.707Z,99503.88
2022-09-26T17:04:57.397Z,99503.06
2022-09-26T17:07:00.195Z,99505.56
2022-09-26T17:09:12.656Z,99501.66
2022-09-26T17:11:15.663Z,99487.88
2022-09-26T17:13:22.096Z,99492.25
2022-09-26T17:15:27.577Z,99489.13
2022-09-26T17:17:29.357Z,99491.91
2022-09-26T17:19:37.555Z,99503.19
2022-09-26T17:21:39.067Z,99497.50
2022-09-26T17:23:42.098Z,99494.66
2022-09-26T17:25:45.770Z,99491.81
2022-09-26T17:27:51.143Z,99487.47
2022-09-26T17:29:59.122Z,99493.22
2022-09-26T17:32:07.514Z,99501.91
2022-09-26T17:34:11.264Z,99484.56
2022-09-26T17:36:19.669Z,99490.38
2022-09-26T17:38:21.187Z,99482.75
2022-09-26T17:40:24.492Z,99492.59
2022-09-26T17:42:26.177Z,99491.44
2022-09-26T17:44:27.681Z,99485.19
2022-09-26T17:46:31.069Z,99489.16
2022-09-26T17:48:33.155Z,99484.53
2022-09-26T17:50:35.901Z,99475.66
2022-09-26T17:52:38.017Z,99480.41
2022-09-26T17:54:40.094Z,99481.53
2022-09-26T17:56:41.690Z,99487.00
2022-09-26T17:58:44.730Z,99485.94
2022-09-26T18:00:49.864Z,99481.19
2022-09-26T18:02:56.001Z,99471.59
2022-09-26T18:05:00.588Z,99476.09
2022-09-26T18:07:02.884Z,99470.38
2022-09-26T18:09:05.341Z,99468.91
2022-09-26T18:11:15.398Z,99473.28
2022-09-26T18:13:20.167Z,99461.41
2022-09-26T18:15:21.973Z,99470.41
2022-09-26T18:17:23.571Z,99461.41
2022-09-26T18:19:26.950Z,99471.78
2022-09-26T18:21:28.473Z,99471.19
2022-09-26T18:23:42.510Z,99469.63
2022-09-26T18:25:44.975Z,99462.81
2022-09-26T18:27:47.823Z,99461.78
2022-09-26T18:29:49.449Z,99471.03
2022-09-26T18:31:51.315Z,99474.34
2022-09-26T18:33:52.966Z,99474.75
2022-09-26T18:35:57.027Z,99467.56
2022-09-26T18:37:58.662Z,99467.53
2022-09-26T18:40:04.059Z,99470.56
2022-09-26T18:42:07.430Z,99465.47
2022-09-26T18:44:13.702Z,99453.06
2022-09-26T18:46:16.708Z,99455.91
2022-09-26T18:48:24.232Z,99460.84
2022-09-26T18:50:32.584Z,99456.03
2022-09-26T18:52:35.482Z,99462.81
2022-09-26T18:54:36.969Z,99454.47
2022-09-26T18:56:38.781Z,99441.97
2022-09-26T18:58:40.336Z,99458.69
2022-09-26T19:00:41.877Z,99459.41
2022-09-26T19:02:43.801Z,99455.16
2022-09-26T19:04:45.437Z,99458.06
2022-09-26T19:06:49.048Z,99449.28
2022-09-26T19:08:57.414Z,99451.25
2022-09-26T19:11:01.301Z,99453.78
2022-09-26T19:13:02.848Z,99451.88
2022-09-26T19:15:13.014Z,99446.53
2022-09-26T19:17:14.662Z,99442.25
2022-09-26T19:19:16.751Z,99444.78
2022-09-26T19:21:25.388Z,99431.81
2022-09-26T19:23:31.188Z,99435.47
2022-09-26T19:25:34.072Z,99436.63
2022-09-26T19:27:42.583Z,99435.84
2022-09-26T19:29:48.516Z,99435.22
2022-09-26T19:31:50.047Z,99441.31
2022-09-26T19:33:52.124Z,99430.63
2022-09-26T19:35:53.822Z,99429.13
2022-09-26T19:37:55.888Z,99433.63
2022-09-26T19:39:57.800Z,99432.41
2022-09-26T19:42:00.705Z,99432.78
2022-09-26T19:44:02.241Z,99420.59
2022-09-26T19:46:04.760Z,99414.53
2022-09-26T19:48:07.682Z,99419.34
2022-09-26T19:50:15.194Z,99422.28
2022-09-26T19:52:18.932Z,99423.06
2022-09-26T19:54:20.493Z,99415.78
2022-09-26T19:56:21.993Z,99420.53
2022-09-26T19:58:26.614Z,99419.84
2022-09-26T20:00:28.159Z,99412.22
2022-09-26T20:02:32.130Z,99411.44
2022-09-26T20:04:35.534Z,99414.84
2022-09-26T20:06:37.053Z,99417.38
2022-09-26T20:08:38.566Z,99412.81
2022-09-26T20:10:40.120Z,99414.97
2022-09-26T20:12:41.737Z,99405.25
2022-09-26T20:14:44.556Z,99407.66
2022-09-26T20:16:46.176Z,99405.78
2022-09-26T20:18:48.231Z,99398.69
2022-09-26T20:20:53.055Z,99393.13
2022-09-26T20:22:56.215Z,99394.69
2022-09-26T20:24:57.781Z,99383.22
2022-09-26T20:27:01.425Z,99380.81
2022-09-26T20:29:03.036Z,99392.69
2022-09-26T20:31:17.297Z,99389.03
2022-09-26T20:33:20.120Z,99383.22
2022-09-26T20:35:21.650Z,99382.84
2022-09-26T20:37:23.260Z,99378.34
2022-09-26T20:39:26.191Z,99379.00
2022-09-26T20:41:32.564Z,99375.88
2022-09-26T20:43:37.718Z,99371.13
2022-09-26T20:45:40.185Z,99375.59
2022-09-26T20:47:43.746Z,99370.78
2022-09-26T20:49:50.279Z,99364.66
2022-09-26T20:51:52.362Z,99363.75
2022-09-26T20:53:53.939Z,99357.88
2022-09-26T20:55:56.051Z,99359.06
2022-09-26T20:57:57.782Z,99357.34
2022-09-26T20:59:59.474Z,99355.66
2022-09-26T21:02:03.679Z,99353.44
2022-09-26T21:04:13.689Z,99348.16
2022-09-26T21:06:17.228Z,99350.25
2022-09-26T21:08:26.388Z,99342.09
2022-09-26T21:10:29.758Z,99343.66
2022-09-26T21:12:31.266Z,99345.78
2022-09-26T21:14:32.736Z,99349.66
2022-09-26T21:16:43.336Z,99349.22
2022-09-26T21:18:47.973Z,99338.25
2022-09-26T21:20:51.233Z,99335.84
2022-09-26T21:22:53.935Z,99335.84
2022-09-26T21:24:55.569Z,99335.31
2022-09-26T21:26:57.081Z,99338.16
2022-09-26T21:28:58.707Z,99339.41
2022-09-26T21:31:05.063Z,99338.97
2022-09-26T21:33:06.623Z,99342.41
2022-09-26T21:35:08.158Z,99332.44
2022-09-26T21:37:11.143Z,99329.84
2022-09-26T21:39:13.578Z,99327.09
2022-09-26T21:41:15.375Z,99322.53
2022-09-26T21:43:20.153Z,99322.34
2022-09-26T21:45:27.124Z,99322.75
2022-09-26T21:47:29.035Z,99315.50
2022-09-26T21:49:30.795Z,99306.50
2022-09-26T21:51:32.566Z,99305.69
2022-09-26T21:53:40.802Z,99304.19
2022-09-26T21:55:47.972Z,99298.66
2022-09-26T21:57:53.012Z,99297.69
2022-09-26T21:59:57.137Z,99295.28
2022-09-26T22:01:58.851Z,99298.66
2022-09-26T22:04:00.385Z,99298.59
2022-09-26T22:06:07.009Z,99296.38
2022-09-26T22:08:08.928Z,99289.22
2022-09-26T22:10:11.758Z,99289.22
2022-09-26T22:12:13.310Z,99275.41
2022-09-26T22:14:14.816Z,99278.66
2022-09-26T22:16:17.157Z,99271.22
2022-09-26T22:18:18.693Z,99276.31
2022-09-26T22:20:20.296Z,99271.22
2022-09-26T22:22:21.824Z,99265.94
2022-09-26T22:24:23.341Z,99268.75
2022-09-26T22:26:26.276Z,99258.31
2022-09-26T22:28:28.229Z,99254.41
2022-09-26T22:30:29.796Z,99258.94
2022-09-26T22:32:31.384Z,99257.78
2022-09-26T22:34:32.866Z,99258.94
2022-09-26T22:36:34.485Z,99239.63
2022-09-26T22:38:36.772Z,99232.72
2022-09-26T22:40:38.439Z,99230.50
2022-09-26T22:42:41.296Z,99232.84
2022-09-26T22:44:42.822Z,99234.63
2022-09-26T22:46:44.299Z,99232.66
2022-09-26T22:48:46.775Z,99230.72
2022-09-26T22:50:48.272Z,99224.22
2022-09-26T22:52:49.760Z,99227.31
2022-09-26T22:54:51.245Z,99224.94
2022-09-26T22:56:52.742Z,99227.06
2022-09-26T22:58:55.574Z,99218.59
2022-09-26T23:01:00.395Z,99218.06
2022-09-26T23:03:02.093Z,99209.91
2022-09-26T23:05:04.023Z,99210.72
2022-09-26T23:07:05.521Z,99201.72
2022-09-26T23:09:06.986Z,99195.53
2022-09-26T23:11:11.477Z,99206.50
2022-09-26T23:13:13.063Z,99192.75
2022-09-26T23:15:16.096Z,99183.72
2022-09-26T23:17:17.636Z,99179.78
2022-09-26T23:19:19.206Z,99183.16
2022-09-26T23:21:22.797Z,99173.25
2022-09-26T23:23:24.387Z,99174.38
2022-09-26T23:25:25.902Z,99166.97
2022-09-26T23:27:27.425Z,99168.75
2022-09-26T23:29:28.914Z,99163.69
2022-09-26T23:31:31.722Z,99161.16
2022-09-26T23:33:33.363Z,99166.75
2022-09-26T23:35:35.107Z,99176.00
2022-09-26T23:37:36.556Z,99161.69
2022-09-26T23:39:37.884Z,99152.56
2022-09-26T23:41:39.399Z,99151.41
2022-09-26T23:43:41.227Z,99146.72
2022-09-26T23:45:42.759Z,99147.59
2022-09-26T23:47:45.666Z,99141.25
2022-09-26T23:49:47.159Z,99157.16
2022-09-26T23:51:48.723Z,99138.00
2022-09-26T23:53:50.267Z,99140.56
2022-09-26T23:55:52.241Z,99137.75
2022-09-26T23:57:55.936Z,99147.06
2022-09-26T23:59:57.438Z,99126.09
